createdAt,value
2017-04-12T00:00:38.356Z,0
2017-04-12T00:01:38.336Z,0
2017-04-12T00:02:38.316Z,0
2017-04-12T00:03:38.298Z,0
2017-04-12T00:04:38.276Z,0
2017-04-12T00:05:38.257Z,0
2017-04-12T00:06:38.237Z,0
2017-04-12T00:07:38.216Z,0
2017-04-12T00:08:38.191Z,0
2017-04-12T00:09:38.181Z,0
2017-04-12T00:10:38.155Z,0
2017-04-12T00:11:38.135Z,0
2017-04-12T00:12:38.116Z,0
2017-04-12T00:13:38.098Z,0
2017-04-12T00:14:38.080Z,0
2017-04-12T00:15:38.059Z,0
2017-04-12T00:16:38.039Z,0
2017-04-12T00:17:38.013Z,0
2017-04-12T00:18:37.994Z,0
2017-04-12T00:19:37.974Z,0
2017-04-12T00:20:37.957Z,0
2017-04-12T00:21:37.933Z,0
2017-04-12T00:22:37.914Z,0
2017-04-12T00:23:37.894Z,0
2017-04-12T00:24:37.872Z,0
2017-04-12T00:25:37.854Z,0
2017-04-12T00:26:37.836Z,0
2017-04-12T00:27:37.820Z,0
2017-04-12T00:28:37.496Z,0
2017-04-12T00:29:37.775Z,0
2017-04-12T00:30:37.756Z,0
2017-04-12T00:31:37.735Z,0
2017-04-12T00:32:37.721Z,0
2017-04-12T00:33:37.707Z,0
2017-04-12T00:34:37.683Z,0
2017-04-12T00:35:37.652Z,0
2017-04-12T00:36:37.634Z,0
2017-04-12T00:37:37.621Z,0
2017-04-12T00:38:37.614Z,0
2017-04-12T00:39:37.568Z,0
2017-04-12T00:40:37.556Z,0
2017-04-12T00:41:37.534Z,0
2017-04-12T00:42:37.516Z,0
2017-04-12T00:43:37.498Z,0
2017-04-12T00:44:37.476Z,0
2017-04-12T00:45:37.461Z,0
2017-04-12T00:46:37.433Z,0
2017-04-12T00:47:37.416Z,0
2017-04-12T00:48:37.400Z,0
2017-04-12T00:49:37.380Z,0
2017-04-12T00:50:37.362Z,0
2017-04-12T00:51:37.337Z,0
2017-04-12T00:52:37.318Z,0
2017-04-12T00:53:37.300Z,0
2017-04-12T00:54:37.285Z,0
2017-04-12T00:55:37.257Z,0
2017-04-12T00:56:37.235Z,0
2017-04-12T00:57:37.219Z,0
2017-04-12T00:58:37.209Z,0
2017-04-12T00:59:37.181Z,0
2017-04-12T01:00:37.159Z,0
2017-04-12T01:01:37.139Z,0
2017-04-12T01:02:37.127Z,0
2017-04-12T01:03:37.100Z,0
2017-04-12T01:04:37.116Z,0
2017-04-12T01:05:37.058Z,0
2017-04-12T01:06:37.045Z,0
2017-04-12T01:07:37.025Z,0
2017-04-12T01:08:37.012Z,0
2017-04-12T01:09:36.986Z,0
2017-04-12T01:10:36.664Z,0
2017-04-12T01:11:36.943Z,0
2017-04-12T01:12:36.926Z,0
2017-04-12T01:13:36.910Z,0
2017-04-12T01:14:36.885Z,0
2017-04-12T01:15:36.868Z,0
2017-04-12T01:16:36.844Z,0
2017-04-12T01:17:36.826Z,0
2017-04-12T01:18:36.807Z,0
2017-04-12T01:19:36.790Z,0
2017-04-12T01:20:36.768Z,0
2017-04-12T01:21:36.750Z,0
2017-04-12T01:22:36.732Z,0
2017-04-12T01:23:36.717Z,0
2017-04-12T01:24:36.738Z,0
2017-04-12T01:25:36.671Z,0
2017-04-12T01:26:36.650Z,0
2017-04-12T01:27:36.628Z,0
2017-04-12T01:28:36.617Z,0
2017-04-12T01:29:36.588Z,0
2017-04-12T01:30:36.573Z,0
2017-04-12T01:31:36.550Z,0
2017-04-12T01:32:36.229Z,0
2017-04-12T01:33:36.519Z,0
2017-04-12T01:34:36.486Z,0
2017-04-12T01:35:36.472Z,0
2017-04-12T01:36:36.453Z,0
2017-04-12T01:37:36.134Z,0
2017-04-12T01:38:36.409Z,0
2017-04-12T01:39:36.092Z,0
2017-04-12T01:40:36.382Z,0
2017-04-12T01:41:36.355Z,0
2017-04-12T01:42:36.029Z,0
2017-04-12T01:43:36.311Z,0
2017-04-12T01:44:35.993Z,0
2017-04-12T01:45:36.276Z,0
2017-04-12T01:46:36.254Z,0
2017-04-12T01:47:36.239Z,0
2017-04-12T01:48:36.215Z,0
2017-04-12T01:49:36.204Z,0
2017-04-12T01:50:36.189Z,0
2017-04-12T01:51:35.861Z,0
2017-04-12T01:52:36.146Z,0
2017-04-12T01:53:36.125Z,0
2017-04-12T01:54:36.102Z,0
2017-04-12T01:55:36.085Z,0
2017-04-12T01:56:36.069Z,0
2017-04-12T01:57:36.041Z,0
2017-04-12T01:58:36.025Z,0
2017-04-12T01:59:36.006Z,0
2017-04-12T02:00:35.996Z,0
2017-04-12T02:01:35.969Z,0
2017-04-12T02:02:35.945Z,0
2017-04-12T02:03:36.146Z,0
2017-04-12T02:04:35.920Z,0
2017-04-12T02:05:35.896Z,0
2017-04-12T02:06:35.870Z,0
2017-04-12T02:07:35.852Z,0
2017-04-12T02:08:35.826Z,0
2017-04-12T02:09:35.817Z,0
2017-04-12T02:10:35.790Z,0
2017-04-12T02:11:35.774Z,0
2017-04-12T02:12:35.953Z,0
2017-04-12T02:13:35.731Z,0
2017-04-12T02:14:35.716Z,0
2017-04-12T02:15:35.693Z,0
2017-04-12T02:16:35.680Z,0
2017-04-12T02:17:35.662Z,0
2017-04-12T02:18:35.634Z,0
2017-04-12T02:19:35.622Z,0
2017-04-12T02:20:35.598Z,0
2017-04-12T02:21:35.583Z,0
2017-04-12T02:22:35.560Z,0
2017-04-12T02:23:35.544Z,0
2017-04-12T02:24:35.523Z,0
2017-04-12T02:25:35.502Z,0
2017-04-12T02:26:35.525Z,0
2017-04-12T02:27:35.460Z,0
2017-04-12T02:28:35.444Z,0
2017-04-12T02:29:35.421Z,0
2017-04-12T02:30:35.404Z,0
2017-04-12T02:31:35.390Z,0
2017-04-12T02:32:35.369Z,0
2017-04-12T02:33:35.347Z,0
2017-04-12T02:34:35.337Z,0
2017-04-12T02:35:35.311Z,0
2017-04-12T02:36:35.291Z,0
2017-04-12T02:37:35.490Z,0
2017-04-12T02:38:35.254Z,0
2017-04-12T02:39:35.236Z,0
2017-04-12T02:40:35.208Z,0
2017-04-12T02:41:35.396Z,0
2017-04-12T02:42:35.180Z,0
2017-04-12T02:43:35.158Z,0
2017-04-12T02:44:35.138Z,0
2017-04-12T02:45:35.119Z,0
2017-04-12T02:46:35.295Z,0
2017-04-12T02:47:35.081Z,0
2017-04-12T02:48:35.060Z,0
2017-04-12T02:49:35.037Z,0
2017-04-12T02:50:35.021Z,0
2017-04-12T02:51:35.003Z,0
2017-04-12T02:52:34.680Z,0
2017-04-12T02:53:34.655Z,0
2017-04-12T02:54:34.943Z,0
2017-04-12T02:55:34.922Z,0
2017-04-12T02:56:34.910Z,0
2017-04-12T02:57:34.577Z,0
2017-04-12T02:58:34.860Z,0
2017-04-12T02:59:34.842Z,0
2017-04-12T03:00:34.821Z,0
2017-04-12T03:01:34.803Z,0
2017-04-12T03:02:34.787Z,0
2017-04-12T03:03:34.769Z,0
2017-04-12T03:04:34.750Z,0
2017-04-12T03:05:34.729Z,0
2017-04-12T03:06:34.716Z,0
2017-04-12T03:07:47.764Z,0
2017-04-12T03:08:34.677Z,0
2017-04-12T03:09:34.655Z,0
2017-04-12T03:10:34.332Z,0
2017-04-12T03:11:34.839Z,0
2017-04-12T03:12:34.594Z,0
2017-04-12T03:13:34.578Z,0
2017-04-12T03:14:34.554Z,0
2017-04-12T03:15:34.538Z,0
2017-04-12T03:16:48.162Z,0
2017-04-12T03:17:34.198Z,0
2017-04-12T03:18:34.480Z,0
2017-04-12T03:19:34.463Z,0
2017-04-12T03:20:34.647Z,0
2017-04-12T03:21:34.423Z,0
2017-04-12T03:22:34.406Z,0
2017-04-12T03:23:34.385Z,0
2017-04-12T03:24:34.060Z,0
2017-04-12T03:25:34.046Z,0
2017-04-12T03:26:34.035Z,0
2017-04-12T03:27:34.321Z,0
2017-04-12T03:28:34.290Z,0
2017-04-12T03:29:34.272Z,0
2017-04-12T03:30:34.251Z,0
2017-04-12T03:31:34.235Z,0
2017-04-12T03:32:34.218Z,0
2017-04-12T03:33:33.894Z,0
2017-04-12T03:34:34.174Z,0
2017-04-12T03:35:34.158Z,0
2017-04-12T03:36:34.138Z,0
2017-04-12T03:37:33.854Z,0
2017-04-12T03:38:34.098Z,0
2017-04-12T03:39:34.082Z,0
2017-04-12T03:40:34.065Z,0
2017-04-12T03:41:34.041Z,0
2017-04-12T03:42:34.023Z,0
2017-04-12T03:43:34.010Z,0
2017-04-12T03:44:33.984Z,0
2017-04-12T03:45:34.174Z,0
2017-04-12T03:46:33.946Z,0
2017-04-12T03:47:33.629Z,0
2017-04-12T03:48:33.912Z,0
2017-04-12T03:49:33.890Z,0
2017-04-12T03:50:33.865Z,0
2017-04-12T03:51:33.860Z,0
2017-04-12T03:52:33.835Z,0
2017-04-12T03:53:33.812Z,0
2017-04-12T03:54:33.999Z,0
2017-04-12T03:55:47.413Z,0
2017-04-12T03:56:33.755Z,0
2017-04-12T03:57:33.734Z,0
2017-04-12T03:58:33.721Z,0
2017-04-12T03:59:33.708Z,0
2017-04-12T04:00:33.681Z,0
2017-04-12T04:01:33.662Z,4
2017-04-12T04:02:33.346Z,4
2017-04-12T04:03:33.629Z,4
2017-04-12T04:04:33.610Z,0
2017-04-12T04:05:33.589Z,4
2017-04-12T04:06:33.567Z,4
2017-04-12T04:07:33.551Z,4
2017-04-12T04:08:33.541Z,8
2017-04-12T04:09:33.513Z,8
2017-04-12T04:10:33.491Z,12
2017-04-12T04:11:33.478Z,12
2017-04-12T04:12:33.452Z,12
2017-04-12T04:13:33.435Z,20
2017-04-12T04:14:33.417Z,20
2017-04-12T04:15:33.405Z,24
2017-04-12T04:16:33.384Z,32
2017-04-12T04:17:33.356Z,36
2017-04-12T04:18:33.339Z,44
2017-04-12T04:19:33.330Z,52
2017-04-12T04:20:33.310Z,60
2017-04-12T04:21:33.293Z,72
2017-04-12T04:22:33.273Z,88
2017-04-12T04:23:33.255Z,104
2017-04-12T04:24:33.439Z,120
2017-04-12T04:25:46.599Z,140
2017-04-12T04:26:33.193Z,152
2017-04-12T04:27:33.178Z,172
2017-04-12T04:28:33.357Z,192
2017-04-12T04:29:32.844Z,220
2017-04-12T04:30:33.121Z,252
2017-04-12T04:31:33.103Z,284
2017-04-12T04:32:33.077Z,328
2017-04-12T04:33:33.071Z,388
2017-04-12T04:34:33.043Z,480
2017-04-12T04:35:33.027Z,576
2017-04-12T04:36:33.011Z,660
2017-04-12T04:37:32.988Z,724
2017-04-12T04:38:32.969Z,764
2017-04-12T04:39:32.956Z,796
2017-04-12T04:40:32.933Z,844
2017-04-12T04:41:32.922Z,908
2017-04-12T04:42:32.898Z,992
2017-04-12T04:43:32.884Z,1092
2017-04-12T04:44:32.872Z,1204
2017-04-12T04:45:32.851Z,1324
2017-04-12T04:46:32.826Z,1448
2017-04-12T04:47:32.809Z,1576
2017-04-12T04:48:32.796Z,1700
2017-04-12T04:49:32.781Z,1812
2017-04-12T04:50:32.747Z,1916
2017-04-12T04:51:32.760Z,2012
2017-04-12T04:52:32.718Z,2100
2017-04-12T04:53:32.699Z,2200
2017-04-12T04:54:46.324Z,2328
2017-04-12T04:55:32.666Z,2428
2017-04-12T04:56:32.644Z,2584
2017-04-12T04:57:32.823Z,2764
2017-04-12T04:58:32.604Z,2948
2017-04-12T04:59:32.790Z,3140
2017-04-12T05:00:32.568Z,3336
2017-04-12T05:01:32.558Z,3524
2017-04-12T05:02:32.536Z,3712
2017-04-12T05:03:32.719Z,3920
2017-04-12T05:04:32.708Z,4140
2017-04-12T05:05:32.487Z,4336
2017-04-12T05:06:32.457Z,4424
2017-04-12T05:07:32.445Z,4460
2017-04-12T05:08:32.425Z,4488
2017-04-12T05:09:32.405Z,4572
2017-04-12T05:10:32.389Z,4640
2017-04-12T05:11:32.372Z,4760
2017-04-12T05:12:32.357Z,4952
2017-04-12T05:13:32.339Z,5236
2017-04-12T05:14:32.326Z,5632
2017-04-12T05:15:32.311Z,6068
2017-04-12T05:16:32.284Z,6508
2017-04-12T05:17:32.263Z,6844
2017-04-12T05:18:32.246Z,7060
2017-04-12T05:19:32.226Z,7196
2017-04-12T05:20:32.214Z,7280
2017-04-12T05:21:32.197Z,7348
2017-04-12T05:22:32.182Z,7388
2017-04-12T05:23:32.161Z,7416
2017-04-12T05:24:32.149Z,7364
2017-04-12T05:25:32.129Z,7284
2017-04-12T05:26:32.107Z,7204
2017-04-12T05:27:32.092Z,7072
2017-04-12T05:28:32.073Z,6816
2017-04-12T05:29:32.056Z,6504
2017-04-12T05:30:32.038Z,6204
2017-04-12T05:31:32.020Z,6056
2017-04-12T05:32:32.000Z,6080
2017-04-12T05:33:32.189Z,6192
2017-04-12T05:34:31.967Z,6364
2017-04-12T05:35:31.947Z,6508
2017-04-12T05:36:31.931Z,6596
2017-04-12T05:37:31.913Z,6724
2017-04-12T05:38:31.898Z,6848
2017-04-12T05:39:31.917Z,7032
2017-04-12T05:40:31.862Z,7336
2017-04-12T05:41:31.839Z,7852
2017-04-12T05:42:31.823Z,8244
2017-04-12T05:43:31.797Z,8484
2017-04-12T05:44:31.787Z,9004
2017-04-12T05:45:31.769Z,9268
2017-04-12T05:46:31.748Z,9684
2017-04-12T05:47:31.732Z,10612
2017-04-12T05:48:31.714Z,11180
2017-04-12T05:49:31.702Z,11900
2017-04-12T05:50:31.680Z,11988
2017-04-12T05:51:31.663Z,12184
2017-04-12T05:52:31.643Z,12760
2017-04-12T05:53:31.323Z,14100
2017-04-12T05:54:31.611Z,15676
2017-04-12T05:55:31.591Z,15908
2017-04-12T05:56:31.568Z,16672
2017-04-12T05:57:31.558Z,16832
2017-04-12T05:58:31.538Z,16928
2017-04-12T05:59:31.519Z,18112
2017-04-12T06:00:31.503Z,19264
2017-04-12T06:01:31.482Z,20384
2017-04-12T06:02:31.463Z,20448
2017-04-12T06:03:31.452Z,18496
2017-04-12T06:04:31.130Z,18560
2017-04-12T06:05:31.425Z,18528
2017-04-12T06:06:31.447Z,18464
2017-04-12T06:07:31.376Z,19168
2017-04-12T06:08:31.359Z,19072
2017-04-12T06:09:31.343Z,20032
2017-04-12T06:10:31.322Z,20640
2017-04-12T06:11:31.307Z,22240
2017-04-12T06:12:31.289Z,23616
2017-04-12T06:13:31.271Z,23424
2017-04-12T06:14:31.260Z,23552
2017-04-12T06:15:31.239Z,23872
2017-04-12T06:16:31.220Z,24320
2017-04-12T06:17:31.212Z,23456
2017-04-12T06:18:31.193Z,23072
2017-04-12T06:19:31.181Z,25760
2017-04-12T06:20:31.157Z,26080
2017-04-12T06:21:31.182Z,27424
2017-04-12T06:22:31.117Z,29600
2017-04-12T06:23:31.101Z,28064
2017-04-12T06:24:31.086Z,27712
2017-04-12T06:25:31.068Z,30048
2017-04-12T06:26:31.055Z,30016
2017-04-12T06:27:31.037Z,32352
2017-04-12T06:28:31.022Z,31776
2017-04-12T06:29:31.048Z,28864
2017-04-12T06:30:30.995Z,30656
2017-04-12T06:31:30.969Z,32352
2017-04-12T06:32:30.951Z,32352
2017-04-12T06:33:30.941Z,32416
2017-04-12T06:34:30.924Z,35904
2017-04-12T06:35:30.304Z,37408
2017-04-12T06:36:30.589Z,34464
2017-04-12T06:37:30.877Z,34976
2017-04-12T06:38:30.557Z,37056
2017-04-12T06:39:30.842Z,35744
2017-04-12T06:40:30.827Z,34688
2017-04-12T06:41:30.809Z,35936
2017-04-12T06:42:30.796Z,33856
2017-04-12T06:43:30.787Z,33760
2017-04-12T06:44:30.773Z,30688
2017-04-12T06:45:30.749Z,28896
2017-04-12T06:46:30.741Z,31648
2017-04-12T06:47:30.720Z,34176
2017-04-12T06:48:30.703Z,36768
2017-04-12T06:49:30.683Z,36160
2017-04-12T06:50:30.667Z,36288
2017-04-12T06:51:30.345Z,36416
2017-04-12T06:52:30.636Z,35872
2017-04-12T06:53:30.621Z,37472
2017-04-12T06:54:30.601Z,38784
2017-04-12T06:55:30.590Z,39520
2017-04-12T06:56:30.568Z,39680
2017-04-12T06:57:30.596Z,40864
2017-04-12T06:58:30.544Z,44640
2017-04-12T06:59:30.524Z,47680
2017-04-12T07:00:30.509Z,51104
2017-04-12T07:01:30.490Z,45728
2017-04-12T07:02:30.478Z,30656
2017-04-12T07:03:30.463Z,28832
2017-04-12T07:04:30.148Z,28288
2017-04-12T07:05:30.438Z,28832
2017-04-12T07:06:30.412Z,37184
2017-04-12T07:07:30.399Z,53280
2017-04-12T07:08:30.386Z,54464
2017-04-12T07:09:30.058Z,49152
2017-04-12T07:10:30.350Z,46432
2017-04-12T07:11:30.033Z,51232
2017-04-12T07:12:30.325Z,45920
2017-04-12T07:13:30.313Z,36192
2017-04-12T07:14:30.287Z,33664
2017-04-12T07:15:30.277Z,39136
2017-04-12T07:16:30.255Z,41536
2017-04-12T07:17:30.234Z,38240
2017-04-12T07:18:30.218Z,42464
2017-04-12T07:19:29.905Z,44672
2017-04-12T07:20:30.193Z,43200
2017-04-12T07:21:30.170Z,44640
2017-04-12T07:22:29.858Z,48064
2017-04-12T07:23:30.138Z,50432
2017-04-12T07:24:30.159Z,48480
2017-04-12T07:25:30.115Z,51008
2017-04-12T07:26:30.102Z,51072
2017-04-12T07:27:30.084Z,44640
2017-04-12T07:28:30.068Z,40832
2017-04-12T07:29:30.049Z,46144
2017-04-12T07:30:30.043Z,55584
2017-04-12T07:31:30.022Z,57056
2017-04-12T07:32:30.006Z,54880
2017-04-12T07:33:29.691Z,53984
2017-04-12T07:34:29.984Z,43328
2017-04-12T07:35:29.968Z,36640
2017-04-12T07:36:29.953Z,34464
2017-04-12T07:37:29.931Z,45600
2017-04-12T07:38:29.923Z,57856
2017-04-12T07:39:29.909Z,54560
2017-04-12T07:40:29.894Z,49440
2017-04-12T07:41:29.883Z,51808
2017-04-12T07:42:29.870Z,52224
2017-04-12T07:43:29.850Z,54944
2017-04-12T07:44:29.537Z,56704
2017-04-12T07:45:29.222Z,59808
2017-04-12T07:46:29.812Z,56128
2017-04-12T07:47:29.199Z,54432
2017-04-12T07:48:29.182Z,52544
2017-04-12T07:49:29.769Z,51424
2017-04-12T07:50:29.761Z,51776
2017-04-12T07:51:29.436Z,51264
2017-04-12T07:52:29.427Z,55168
2017-04-12T07:53:29.712Z,53248
2017-04-12T07:54:29.700Z,53760
2017-04-12T07:55:29.386Z,54592
2017-04-12T07:56:29.675Z,53280
2017-04-12T07:57:29.351Z,53248
2017-04-12T07:58:29.674Z,59680
2017-04-12T07:59:29.326Z,56768
2017-04-12T08:00:29.308Z,59072
2017-04-12T08:01:29.594Z,61856
2017-04-12T08:02:29.589Z,60256
2017-04-12T08:03:29.269Z,61248
2017-04-12T08:04:29.562Z,60480
2017-04-12T08:05:29.540Z,60576
2017-04-12T08:06:29.529Z,60544
2017-04-12T08:07:29.504Z,57184
2017-04-12T08:08:29.493Z,63008
2017-04-12T08:09:29.478Z,69184
2017-04-12T08:10:29.462Z,70912
2017-04-12T08:11:29.449Z,64448
2017-04-12T08:12:29.187Z,58080
2017-04-12T08:13:29.121Z,55264
2017-04-12T08:14:29.407Z,59872
2017-04-12T08:15:29.095Z,66688
2017-04-12T08:16:29.383Z,70592
2017-04-12T08:17:29.069Z,67360
2017-04-12T08:18:29.354Z,83008
2017-04-12T08:19:29.331Z,83840
2017-04-12T08:20:29.325Z,81056
2017-04-12T08:21:29.349Z,77536
2017-04-12T08:22:28.990Z,82912
2017-04-12T08:23:29.279Z,84704
2017-04-12T08:24:28.662Z,79552
2017-04-12T08:25:29.250Z,75008
2017-04-12T08:26:29.243Z,64128
2017-04-12T08:27:29.228Z,58368
2017-04-12T08:28:29.216Z,64288
2017-04-12T08:29:28.892Z,68416
2017-04-12T08:30:29.187Z,71072
2017-04-12T08:31:29.168Z,68736
2017-04-12T08:32:29.153Z,71616
2017-04-12T08:33:29.134Z,77376
2017-04-12T08:34:29.125Z,88992
2017-04-12T08:35:29.104Z,86912
2017-04-12T08:36:29.091Z,73504
2017-04-12T08:37:29.074Z,69632
2017-04-12T08:38:28.766Z,73216
2017-04-12T08:39:28.147Z,85408
2017-04-12T08:40:28.777Z,82432
2017-04-12T08:41:28.729Z,65440
2017-04-12T08:42:28.711Z,69664
2017-04-12T08:43:28.998Z,76576
2017-04-12T08:44:28.673Z,79520
2017-04-12T08:45:28.966Z,79168
2017-04-12T08:46:28.950Z,74400
2017-04-12T08:47:28.946Z,69568
2017-04-12T08:48:28.925Z,74208
2017-04-12T08:49:28.926Z,77952
2017-04-12T08:50:28.639Z,88192
2017-04-12T08:51:28.584Z,86144
2017-04-12T08:52:28.873Z,85088
2017-04-12T08:53:28.854Z,93792
2017-04-12T08:54:28.847Z,108032
2017-04-12T08:55:28.828Z,111328
2017-04-12T08:56:28.820Z,102080
2017-04-12T08:57:28.505Z,88608
2017-04-12T08:58:28.785Z,84896
2017-04-12T08:59:28.780Z,83424
2017-04-12T09:00:28.762Z,75040
2017-04-12T09:01:28.752Z,72032
2017-04-12T09:02:28.733Z,72928
2017-04-12T09:03:28.416Z,71584
2017-04-12T09:04:28.709Z,77568
2017-04-12T09:05:28.691Z,79808
2017-04-12T09:06:28.680Z,80512
2017-04-12T09:07:28.668Z,76992
2017-04-12T09:08:28.646Z,78304
2017-04-12T09:09:28.629Z,73664
2017-04-12T09:10:28.621Z,76320
2017-04-12T09:11:28.312Z,81184
2017-04-12T09:12:28.292Z,81120
2017-04-12T09:13:28.581Z,79712
2017-04-12T09:14:28.266Z,80640
2017-04-12T09:15:28.555Z,79584
2017-04-12T09:16:28.545Z,81248
2017-04-12T09:17:28.524Z,81152
2017-04-12T09:18:28.505Z,81664
2017-04-12T09:19:28.195Z,83360
2017-04-12T09:20:28.481Z,84416
2017-04-12T09:21:28.464Z,85344
2017-04-12T09:22:28.450Z,84608
2017-04-12T09:23:28.134Z,94208
2017-04-12T09:24:28.118Z,93312
2017-04-12T09:25:28.103Z,90496
2017-04-12T09:26:28.093Z,92480
2017-04-12T09:27:28.072Z,90496
2017-04-12T09:28:28.068Z,91968
2017-04-12T09:29:28.042Z,89312
2017-04-12T09:30:28.334Z,85216
2017-04-12T09:31:28.014Z,89248
2017-04-12T09:32:28.007Z,91744
2017-04-12T09:33:27.993Z,93888
2017-04-12T09:34:28.279Z,89280
2017-04-12T09:35:27.659Z,90752
2017-04-12T09:36:28.249Z,91616
2017-04-12T09:37:27.634Z,88160
2017-04-12T09:38:28.222Z,88096
2017-04-12T09:39:28.202Z,85600
2017-04-12T09:40:28.190Z,90592
2017-04-12T09:41:27.877Z,90528
2017-04-12T09:42:28.164Z,91680
2017-04-12T09:43:28.149Z,93856
2017-04-12T09:44:27.832Z,92928
2017-04-12T09:45:28.119Z,91712
2017-04-12T09:46:28.111Z,88448
2017-04-12T09:47:27.793Z,83584
2017-04-12T09:48:27.780Z,84608
2017-04-12T09:49:28.070Z,83424
2017-04-12T09:50:27.752Z,84736
2017-04-12T09:51:28.042Z,85440
2017-04-12T09:52:28.026Z,83968
2017-04-12T09:53:28.011Z,84512
2017-04-12T09:54:27.998Z,84992
2017-04-12T09:55:27.989Z,94304
2017-04-12T09:56:27.670Z,110944
2017-04-12T09:57:27.962Z,108512
2017-04-12T09:58:27.341Z,94752
2017-04-12T09:59:27.633Z,86048
2017-04-12T10:00:27.918Z,79072
2017-04-12T10:01:27.910Z,73440
2017-04-12T10:02:27.887Z,76000
2017-04-12T10:03:27.877Z,77920
2017-04-12T10:04:26.953Z,77088
2017-04-12T10:05:27.546Z,74336
2017-04-12T10:06:27.835Z,72864
2017-04-12T10:07:27.818Z,74144
2017-04-12T10:08:27.806Z,75424
2017-04-12T10:09:27.790Z,77376
2017-04-12T10:10:27.775Z,77568
2017-04-12T10:11:27.765Z,73440
2017-04-12T10:12:27.758Z,70656
2017-04-12T10:13:27.738Z,68384
2017-04-12T10:14:27.149Z,65568
2017-04-12T10:15:27.704Z,63264
2017-04-12T10:16:27.691Z,63008
2017-04-12T10:17:27.684Z,65344
2017-04-12T10:18:27.663Z,65504
2017-04-12T10:19:27.690Z,67616
2017-04-12T10:20:27.634Z,67808
2017-04-12T10:21:27.018Z,68768
2017-04-12T10:22:27.347Z,71776
2017-04-12T10:23:27.592Z,74464
2017-04-12T10:24:27.572Z,78944
2017-04-12T10:25:27.253Z,83328
2017-04-12T10:26:27.543Z,88192
2017-04-12T10:27:27.527Z,88896
2017-04-12T10:28:27.515Z,89760
2017-04-12T10:29:27.494Z,86560
2017-04-12T10:30:27.177Z,84416
2017-04-12T10:31:27.167Z,79072
2017-04-12T10:32:27.147Z,75744
2017-04-12T10:33:27.431Z,72320
2017-04-12T10:34:27.427Z,70656
2017-04-12T10:35:27.408Z,68800
2017-04-12T10:36:27.086Z,67968
2017-04-12T10:37:27.101Z,67744
2017-04-12T10:38:27.358Z,69344
2017-04-12T10:39:27.047Z,69824
2017-04-12T10:40:27.044Z,71648
2017-04-12T10:41:27.023Z,73312
2017-04-12T10:42:27.009Z,74144
2017-04-12T10:43:27.296Z,72576
2017-04-12T10:44:26.975Z,68480
2017-04-12T10:45:27.265Z,70176
2017-04-12T10:46:26.955Z,70240
2017-04-12T10:47:27.243Z,68032
2017-04-12T10:48:27.224Z,73984
2017-04-12T10:49:27.215Z,75936
2017-04-12T10:50:27.204Z,77632
2017-04-12T10:51:27.187Z,79584
2017-04-12T10:52:26.875Z,82304
2017-04-12T10:53:26.855Z,86656
2017-04-12T10:54:27.149Z,87296
2017-04-12T10:55:27.134Z,86560
2017-04-12T10:56:27.124Z,85088
2017-04-12T10:57:27.106Z,81056
2017-04-12T10:58:26.797Z,79648
2017-04-12T10:59:26.175Z,81824
2017-04-12T11:00:27.068Z,85600
2017-04-12T11:01:26.753Z,89760
2017-04-12T11:02:26.739Z,94848
2017-04-12T11:03:26.735Z,94368
2017-04-12T11:04:26.713Z,95200
2017-04-12T11:05:27.012Z,89504
2017-04-12T11:06:26.991Z,88096
2017-04-12T11:07:26.075Z,82464
2017-04-12T11:08:26.970Z,80288
2017-04-12T11:09:26.649Z,77120
2017-04-12T11:10:26.940Z,74400
2017-04-12T11:11:26.328Z,78368
2017-04-12T11:12:26.918Z,78400
2017-04-12T11:13:26.907Z,79936
2017-04-12T11:14:26.588Z,78048
2017-04-12T11:15:26.888Z,78304
2017-04-12T11:16:26.912Z,71456
2017-04-12T11:17:26.857Z,73408
2017-04-12T11:18:26.848Z,77664
2017-04-12T11:19:26.234Z,80576
2017-04-12T11:20:26.238Z,82432
2017-04-12T11:21:26.807Z,86336
2017-04-12T11:22:26.795Z,84320
2017-04-12T11:23:26.786Z,80192
2017-04-12T11:24:26.770Z,79200
2017-04-12T11:25:26.457Z,82528
2017-04-12T11:26:26.741Z,87872
2017-04-12T11:27:26.434Z,90400
2017-04-12T11:28:26.721Z,77856
2017-04-12T11:29:26.712Z,86464
2017-04-12T11:30:26.696Z,90720
2017-04-12T11:31:26.387Z,98848
2017-04-12T11:32:26.675Z,108640
2017-04-12T11:33:26.359Z,112544
2017-04-12T11:34:26.353Z,114304
2017-04-12T11:35:26.338Z,121760
2017-04-12T11:36:26.324Z,120288
2017-04-12T11:37:26.616Z,109824
2017-04-12T11:38:26.604Z,96160
2017-04-12T11:39:26.585Z,88960
2017-04-12T11:40:26.269Z,86304
2017-04-12T11:41:26.560Z,87072
2017-04-12T11:42:26.554Z,86880
2017-04-12T11:43:26.543Z,86496
2017-04-12T11:44:26.525Z,86560
2017-04-12T11:45:26.513Z,85632
2017-04-12T11:46:26.506Z,82080
2017-04-12T11:47:26.187Z,83904
2017-04-12T11:48:26.170Z,77632
2017-04-12T11:49:26.164Z,80256
2017-04-12T11:50:26.154Z,84384
2017-04-12T11:51:26.445Z,84576
2017-04-12T11:52:26.126Z,86144
2017-04-12T11:53:26.113Z,85760
2017-04-12T11:54:26.103Z,84864
2017-04-12T11:55:26.393Z,82464
2017-04-12T11:56:26.081Z,86176
2017-04-12T11:57:26.068Z,89600
2017-04-12T11:58:26.359Z,90496
2017-04-12T11:59:26.350Z,92352
2017-04-12T12:00:25.735Z,90624
2017-04-12T12:01:26.330Z,91264
2017-04-12T12:02:26.311Z,91680
2017-04-12T12:03:26.003Z,94176
2017-04-12T12:04:25.987Z,93792
2017-04-12T12:05:25.978Z,93408
2017-04-12T12:06:25.968Z,90784
2017-04-12T12:07:26.008Z,93760
2017-04-12T12:08:26.351Z,98176
2017-04-12T12:09:26.239Z,98752
2017-04-12T12:10:26.231Z,97760
2017-04-12T12:11:26.215Z,99136
2017-04-12T12:12:26.207Z,100992
2017-04-12T12:13:25.890Z,103200
2017-04-12T12:14:25.573Z,102464
2017-04-12T12:15:26.180Z,100704
2017-04-12T12:16:26.160Z,102144
2017-04-12T12:17:26.152Z,100512
2017-04-12T12:18:25.535Z,99424
2017-04-12T12:19:26.125Z,79136
2017-04-12T12:20:26.116Z,106144
2017-04-12T12:21:26.101Z,101824
2017-04-12T12:22:26.094Z,101728
2017-04-12T12:23:25.782Z,102464
2017-04-12T12:24:25.775Z,104384
2017-04-12T12:25:26.063Z,101024
2017-04-12T12:26:26.051Z,95520
2017-04-12T12:27:25.736Z,99072
2017-04-12T12:28:25.729Z,100736
2017-04-12T12:29:25.712Z,100896
2017-04-12T12:30:26.010Z,100864
2017-04-12T12:31:25.993Z,102976
2017-04-12T12:32:25.983Z,100512
2017-04-12T12:33:25.980Z,99296
2017-04-12T12:34:25.967Z,98016
2017-04-12T12:35:25.651Z,99456
2017-04-12T12:36:25.947Z,100448
2017-04-12T12:37:25.941Z,99552
2017-04-12T12:38:25.628Z,98592
2017-04-12T12:39:25.942Z,95776
2017-04-12T12:40:25.905Z,94176
2017-04-12T12:41:25.901Z,97376
2017-04-12T12:42:25.883Z,107424
2017-04-12T12:43:25.574Z,124192
2017-04-12T12:44:25.561Z,144512
2017-04-12T12:45:25.250Z,129312
2017-04-12T12:46:25.537Z,108960
2017-04-12T12:47:25.836Z,100576
2017-04-12T12:48:25.822Z,91136
2017-04-12T12:49:25.811Z,83680
2017-04-12T12:50:25.500Z,77440
2017-04-12T12:51:25.493Z,80800
2017-04-12T12:52:25.483Z,80160
2017-04-12T12:53:25.773Z,90112
2017-04-12T12:54:25.453Z,99584
2017-04-12T12:55:25.750Z,96160
2017-04-12T12:56:25.739Z,98528
2017-04-12T12:57:25.458Z,102432
2017-04-12T12:58:25.717Z,97472
2017-04-12T12:59:25.707Z,95200
2017-04-12T13:00:25.694Z,98816
2017-04-12T13:01:25.681Z,99520
2017-04-12T13:02:25.670Z,98112
2017-04-12T13:03:25.661Z,92160
2017-04-12T13:04:25.648Z,94912
2017-04-12T13:05:25.634Z,100064
2017-04-12T13:06:25.634Z,103840
2017-04-12T13:07:25.608Z,109856
2017-04-12T13:08:25.603Z,109216
2017-04-12T13:09:25.588Z,105472
2017-04-12T13:10:25.579Z,99392
2017-04-12T13:11:25.605Z,92992
2017-04-12T13:12:25.557Z,84736
2017-04-12T13:13:25.539Z,79392
2017-04-12T13:14:25.531Z,80192
2017-04-12T13:15:25.518Z,86272
2017-04-12T13:16:25.513Z,91488
2017-04-12T13:17:25.498Z,97376
2017-04-12T13:18:25.484Z,103744
2017-04-12T13:19:25.476Z,102144
2017-04-12T13:20:25.459Z,95168
2017-04-12T13:21:25.446Z,93760
2017-04-12T13:22:25.432Z,101312
2017-04-12T13:23:25.427Z,104992
2017-04-12T13:24:25.405Z,101664
2017-04-12T13:25:25.434Z,98464
2017-04-12T13:26:25.385Z,96832
2017-04-12T13:27:25.377Z,97184
2017-04-12T13:28:25.367Z,96992